Terminal Aerodrome Forecast
Issued by NWS Upton, NY

Current Version | Previous Version | Text Only | Print | Product List | Glossary On
Versions: 1 2 3 4 5 6 7 8 9 10 11 12 13 14 15 16 17 18 19 20 21 22 23 24 25 26 27 28 29 30 31 32 33
430
FTUS41 KOKX 011933 AAA
TAFEWR
TAF AMD
KEWR 011933Z 0120/0224 22010KT P6SM BKN025
     FM012100 22015G20KT 5SM BR VCTS BKN025CB
     FM020000 22016G22KT P6SM BKN050
     FM020700 24018G26KT P6SM SCT050
     FM021100 28022G34KT P6SM SCT045
     FM021400 29024G38KT P6SM SCT045=

USA.gov is the U.S. government's official web portal to all federal, state and local government web resources and services.